Terminal Aerodrome Forecast
Issued by NWS

Current Version | Previous Version | Text Only | Print | Product List | Glossary On
Versions: 1 2 3 4 5 6 7 8 9 10 11 12 13 14 15 16 17 18 19 20 21 22 23 24
000
FTUS41 KCAR 291700 RRA
TAFFVE
TAF
KFVE 291745Z 2918/3018 26011KT P6SM -SHRA SCT025 BKN035
     FM292100 24006KT P6SM SCT100
     FM300600 00000KT 2SM BR SKC
     FM300800 00000KT 1/2SM FG SCT001
     FM301100 17004KT P6SM SKC=

USA.gov is the U.S. government's official web portal to all federal, state and local government web resources and services.